sensor_id;sensor_type;location;lat;lon;timestamp;temperature;humidity
10306;DHT22;5198;52.382;9.020;2023-08-01T00:01:52;17.50;99.90
10306;DHT22;5198;52.382;9.020;2023-08-01T00:05:56;17.50;99.90
10306;DHT22;5198;52.382;9.020;2023-08-01T00:09:59;17.50;99.90
10306;DHT22;5198;52.382;9.020;2023-08-01T00:14:02;17.50;99.90
10306;DHT22;5198;52.382;9.020;2023-08-01T00:18:05;17.50;99.90
10306;DHT22;5198;52.382;9.020;2023-08-01T00:22:09;17.50;99.90
10306;DHT22;5198;52.382;9.020;2023-08-01T00:26:12;17.60;99.90
10306;DHT22;5198;52.382;9.020;2023-08-01T00:30:15;17.60;99.90
10306;DHT22;5198;52.382;9.020;2023-08-01T00:34:18;17.60;99.90
10306;DHT22;5198;52.382;9.020;2023-08-01T00:38:23;17.60;99.90
10306;DHT22;5198;52.382;9.020;2023-08-01T00:42:25;17.60;99.90
10306;DHT22;5198;52.382;9.020;2023-08-01T00:46:28;17.60;99.90
10306;DHT22;5198;52.382;9.020;2023-08-01T00:50:33;17.60;99.90
10306;DHT22;5198;52.382;9.020;2023-08-01T00:54:37;17.60;99.90
10306;DHT22;5198;52.382;9.020;2023-08-01T00:58:40;17.60;99.90
10306;DHT22;5198;52.382;9.020;2023-08-01T01:02:43;17.60;99.90
10306;DHT22;5198;52.382;9.020;2023-08-01T01:06:47;17.70;99.90
10306;DHT22;5198;52.382;9.020;2023-08-01T01:10:55;17.60;99.90
10306;DHT22;5198;52.382;9.020;2023-08-01T01:14:58;17.70;99.90
10306;DHT22;5198;52.382;9.020;2023-08-01T01:19:01;17.70;99.90
10306;DHT22;5198;52.382;9.020;2023-08-01T01:23:05;17.70;99.90
10306;DHT22;5198;52.382;9.020;2023-08-01T01:27:09;17.70;99.90
10306;DHT22;5198;52.382;9.020;2023-08-01T01:31:12;17.70;99.90
10306;DHT22;5198;52.382;9.020;2023-08-01T01:35:15;17.60;99.90
10306;DHT22;5198;52.382;9.020;2023-08-01T01:39:20;17.60;99.90
10306;DHT22;5198;52.382;9.020;2023-08-01T01:43:23;17.50;99.90
10306;DHT22;5198;52.382;9.020;2023-08-01T01:47:25;17.50;99.90
10306;DHT22;5198;52.382;9.020;2023-08-01T01:51:29;17.50;99.90
10306;DHT22;5198;52.382;9.020;2023-08-01T01:55:34;17.40;99.90
10306;DHT22;5198;52.382;9.020;2023-08-01T01:59:37;17.40;99.90
10306;DHT22;5198;52.382;9.020;2023-08-01T02:03:40;17.40;99.90
10306;DHT22;5198;52.382;9.020;2023-08-01T02:07:43;17.30;99.90
10306;DHT22;5198;52.382;9.020;2023-08-01T02:11:47;17.30;99.90
10306;DHT22;5198;52.382;9.020;2023-08-01T02:15:50;17.30;99.90
10306;DHT22;5198;52.382;9.020;2023-08-01T02:19:53;17.20;99.90
10306;DHT22;5198;52.382;9.020;2023-08-01T02:23:56;17.20;99.90
10306;DHT22;5198;52.382;9.020;2023-08-01T02:28:00;17.20;99.90
10306;DHT22;5198;52.382;9.020;2023-08-01T02:32:03;17.10;99.90
10306;DHT22;5198;52.382;9.020;2023-08-01T02:36:06;17.10;99.90
10306;DHT22;5198;52.382;9.020;2023-08-01T02:40:10;17.00;99.90
10306;DHT22;5198;52.382;9.020;2023-08-01T02:44:14;17.00;99.90
10306;DHT22;5198;52.382;9.020;2023-08-01T02:48:17;17.00;99.90
10306;DHT22;5198;52.382;9.020;2023-08-01T02:52:20;16.90;99.90
10306;DHT22;5198;52.382;9.020;2023-08-01T02:56:23;16.90;99.90
10306;DHT22;5198;52.382;9.020;2023-08-01T03:00:27;16.90;99.90
10306;DHT22;5198;52.382;9.020;2023-08-01T03:04:30;16.80;99.90
10306;DHT22;5198;52.382;9.020;2023-08-01T03:09:01;16.80;99.90
10306;DHT22;5198;52.382;9.020;2023-08-01T03:13:04;16.80;99.90
10306;DHT22;5198;52.382;9.020;2023-08-01T03:17:09;16.70;99.90
10306;DHT22;5198;52.382;9.020;2023-08-01T03:21:11;16.70;99.90
10306;DHT22;5198;52.382;9.020;2023-08-01T03:25:14;16.60;99.90
10306;DHT22;5198;52.382;9.020;2023-08-01T03:33:46;16.60;99.90
10306;DHT22;5198;52.382;9.020;2023-08-01T03:37:49;16.60;99.90
10306;DHT22;5198;52.382;9.020;2023-08-01T03:41:53;16.60;99.90
10306;DHT22;5198;52.382;9.020;2023-08-01T03:45:56;16.50;99.90
10306;DHT22;5198;52.382;9.020;2023-08-01T03:50:00;16.60;99.90
10306;DHT22;5198;52.382;9.020;2023-08-01T03:54:04;16.50;99.90
10306;DHT22;5198;52.382;9.020;2023-08-01T03:58:14;16.50;99.90
10306;DHT22;5198;52.382;9.020;2023-08-01T04:02:17;16.50;99.90
10306;DHT22;5198;52.382;9.020;2023-08-01T04:06:21;16.50;99.90
10306;DHT22;5198;52.382;9.020;2023-08-01T04:10:24;16.50;99.90
10306;DHT22;5198;52.382;9.020;2023-08-01T04:14:27;16.50;99.90
10306;DHT22;5198;52.382;9.020;2023-08-01T04:18:30;16.50;99.90
10306;DHT22;5198;52.382;9.020;2023-08-01T04:22:34;16.40;99.90
10306;DHT22;5198;52.382;9.020;2023-08-01T04:26:38;16.50;99.90
10306;DHT22;5198;52.382;9.020;2023-08-01T04:30:41;16.50;99.90
10306;DHT22;5198;52.382;9.020;2023-08-01T04:34:44;16.50;99.90
10306;DHT22;5198;52.382;9.020;2023-08-01T04:39:04;16.50;99.90
10306;DHT22;5198;52.382;9.020;2023-08-01T04:43:07;16.50;99.90
10306;DHT22;5198;52.382;9.020;2023-08-01T04:47:10;16.50;99.90
10306;DHT22;5198;52.382;9.020;2023-08-01T04:51:13;16.50;99.90
10306;DHT22;5198;52.382;9.020;2023-08-01T04:55:17;16.50;99.90
10306;DHT22;5198;52.382;9.020;2023-08-01T04:59:20;16.50;99.90
10306;DHT22;5198;52.382;9.020;2023-08-01T05:03:23;16.50;99.90
10306;DHT22;5198;52.382;9.020;2023-08-01T05:07:26;16.50;99.90
10306;DHT22;5198;52.382;9.020;2023-08-01T05:11:31;16.50;99.90
10306;DHT22;5198;52.382;9.020;2023-08-01T05:15:34;16.50;99.90
10306;DHT22;5198;52.382;9.020;2023-08-01T05:19:37;16.50;99.90
10306;DHT22;5198;52.382;9.020;2023-08-01T05:23:54;16.60;99.90
10306;DHT22;5198;52.382;9.020;2023-08-01T05:27:59;16.60;99.90
10306;DHT22;5198;52.382;9.020;2023-08-01T05:32:03;16.60;99.90
10306;DHT22;5198;52.382;9.020;2023-08-01T05:44:50;16.60;99.90
10306;DHT22;5198;52.382;9.020;2023-08-01T05:48:53;16.70;99.90
10306;DHT22;5198;52.382;9.020;2023-08-01T05:52:56;16.70;99.90
10306;DHT22;5198;52.382;9.020;2023-08-01T05:56:59;16.70;99.90
10306;DHT22;5198;52.382;9.020;2023-08-01T06:01:03;16.70;99.90
10306;DHT22;5198;52.382;9.020;2023-08-01T06:05:06;16.80;99.90
10306;DHT22;5198;52.382;9.020;2023-08-01T06:09:16;16.80;99.90
10306;DHT22;5198;52.382;9.020;2023-08-01T06:13:19;16.80;99.90
10306;DHT22;5198;52.382;9.020;2023-08-01T06:21:47;16.90;99.90
10306;DHT22;5198;52.382;9.020;2023-08-01T06:25:50;16.90;99.90
10306;DHT22;5198;52.382;9.020;2023-08-01T06:29:53;16.90;99.90
10306;DHT22;5198;52.382;9.020;2023-08-01T06:33:56;17.00;99.90
10306;DHT22;5198;52.382;9.020;2023-08-01T06:38:00;17.00;99.90
10306;DHT22;5198;52.382;9.020;2023-08-01T06:42:03;17.10;99.90
10306;DHT22;5198;52.382;9.020;2023-08-01T06:46:06;17.10;99.90
10306;DHT22;5198;52.382;9.020;2023-08-01T06:50:10;17.10;99.90
10306;DHT22;5198;52.382;9.020;2023-08-01T06:54:14;17.10;99.90
10306;DHT22;5198;52.382;9.020;2023-08-01T06:58:18;17.10;99.90
10306;DHT22;5198;52.382;9.020;2023-08-01T07:02:21;17.10;99.90
10306;DHT22;5198;52.382;9.020;2023-08-01T07:06:24;17.20;99.90
10306;DHT22;5198;52.382;9.020;2023-08-01T07:10:37;17.20;99.90
10306;DHT22;5198;52.382;9.020;2023-08-01T07:14:40;17.30;99.90
10306;DHT22;5198;52.382;9.020;2023-08-01T07:18:44;17.30;99.90
10306;DHT22;5198;52.382;9.020;2023-08-01T07:22:47;17.40;99.90
10306;DHT22;5198;52.382;9.020;2023-08-01T07:26:51;17.50;99.90
10306;DHT22;5198;52.382;9.020;2023-08-01T07:31:00;17.60;99.90
10306;DHT22;5198;52.382;9.020;2023-08-01T07:35:03;17.70;99.90
10306;DHT22;5198;52.382;9.020;2023-08-01T07:39:07;17.70;99.90
10306;DHT22;5198;52.382;9.020;2023-08-01T07:43:12;17.80;99.90
10306;DHT22;5198;52.382;9.020;2023-08-01T07:47:17;17.80;99.90
10306;DHT22;5198;52.382;9.020;2023-08-01T07:51:20;17.90;99.90
10306;DHT22;5198;52.382;9.020;2023-08-01T07:55:23;17.90;99.90
10306;DHT22;5198;52.382;9.020;2023-08-01T07:59:27;17.90;99.90
10306;DHT22;5198;52.382;9.020;2023-08-01T08:03:30;17.80;99.90
10306;DHT22;5198;52.382;9.020;2023-08-01T08:07:36;17.70;99.90
10306;DHT22;5198;52.382;9.020;2023-08-01T08:11:39;17.70;99.90
10306;DHT22;5198;52.382;9.020;2023-08-01T08:15:44;17.70;99.90
10306;DHT22;5198;52.382;9.020;2023-08-01T08:19:46;17.70;99.90
10306;DHT22;5198;52.382;9.020;2023-08-01T08:23:49;17.80;99.90
10306;DHT22;5198;52.382;9.020;2023-08-01T08:27:54;17.90;99.90
10306;DHT22;5198;52.382;9.020;2023-08-01T08:31:59;18.20;99.90
10306;DHT22;5198;52.382;9.020;2023-08-01T08:36:02;18.40;99.90
10306;DHT22;5198;52.382;9.020;2023-08-01T08:40:05;18.50;99.90
10306;DHT22;5198;52.382;9.020;2023-08-01T08:44:08;18.60;99.90
10306;DHT22;5198;52.382;9.020;2023-08-01T08:48:17;18.70;99.90
10306;DHT22;5198;52.382;9.020;2023-08-01T08:52:20;18.80;99.90
10306;DHT22;5198;52.382;9.020;2023-08-01T08:56:23;18.90;99.90
10306;DHT22;5198;52.382;9.020;2023-08-01T09:00:26;19.00;99.90
10306;DHT22;5198;52.382;9.020;2023-08-01T09:08:37;19.10;99.90
10306;DHT22;5198;52.382;9.020;2023-08-01T09:12:42;19.20;99.90
10306;DHT22;5198;52.382;9.020;2023-08-01T09:16:45;19.30;99.90
10306;DHT22;5198;52.382;9.020;2023-08-01T09:20:49;19.40;99.90
10306;DHT22;5198;52.382;9.020;2023-08-01T09:24:53;19.60;99.90
10306;DHT22;5198;52.382;9.020;2023-08-01T09:28:56;19.60;99.90
10306;DHT22;5198;52.382;9.020;2023-08-01T09:32:59;19.60;99.90
10306;DHT22;5198;52.382;9.020;2023-08-01T09:37:20;19.70;99.90
10306;DHT22;5198;52.382;9.020;2023-08-01T09:41:25;19.70;99.90
10306;DHT22;5198;52.382;9.020;2023-08-01T09:45:28;19.60;99.90
10306;DHT22;5198;52.382;9.020;2023-08-01T09:49:31;19.70;99.90
10306;DHT22;5198;52.382;9.020;2023-08-01T09:53:35;19.70;99.90
10306;DHT22;5198;52.382;9.020;2023-08-01T09:57:40;19.70;99.90
10306;DHT22;5198;52.382;9.020;2023-08-01T10:01:45;19.70;99.90
10306;DHT22;5198;52.382;9.020;2023-08-01T10:05:50;19.70;99.90
10306;DHT22;5198;52.382;9.020;2023-08-01T10:09:55;19.80;99.90
10306;DHT22;5198;52.382;9.020;2023-08-01T10:13:59;19.90;99.90
10306;DHT22;5198;52.382;9.020;2023-08-01T10:18:03;20.10;99.90
10306;DHT22;5198;52.382;9.020;2023-08-01T10:22:07;20.20;99.90
10306;DHT22;5198;52.382;9.020;2023-08-01T10:26:12;20.20;99.90
10306;DHT22;5198;52.382;9.020;2023-08-01T10:30:25;20.20;99.90
10306;DHT22;5198;52.382;9.020;2023-08-01T10:34:50;20.10;99.90
10306;DHT22;5198;52.382;9.020;2023-08-01T10:38:53;20.00;99.90
10306;DHT22;5198;52.382;9.020;2023-08-01T10:42:56;19.90;99.90
10306;DHT22;5198;52.382;9.020;2023-08-01T10:47:02;19.70;99.90
10306;DHT22;5198;52.382;9.020;2023-08-01T10:51:05;19.50;99.90
10306;DHT22;5198;52.382;9.020;2023-08-01T10:55:08;19.40;99.90
10306;DHT22;5198;52.382;9.020;2023-08-01T10:59:12;19.40;99.90
10306;DHT22;5198;52.382;9.020;2023-08-01T11:03:16;19.40;99.90
10306;DHT22;5198;52.382;9.020;2023-08-01T11:07:21;19.30;99.90
10306;DHT22;5198;52.382;9.020;2023-08-01T11:11:24;19.20;99.90
10306;DHT22;5198;52.382;9.020;2023-08-01T11:15:27;19.20;99.90
10306;DHT22;5198;52.382;9.020;2023-08-01T11:19:31;19.30;99.90
10306;DHT22;5198;52.382;9.020;2023-08-01T11:23:34;19.40;99.90
10306;DHT22;5198;52.382;9.020;2023-08-01T11:27:38;19.60;99.90
10306;DHT22;5198;52.382;9.020;2023-08-01T11:31:41;19.80;99.90
10306;DHT22;5198;52.382;9.020;2023-08-01T11:35:45;20.10;99.90
10306;DHT22;5198;52.382;9.020;2023-08-01T11:39:48;20.40;99.90
10306;DHT22;5198;52.382;9.020;2023-08-01T11:43:53;20.70;99.90
10306;DHT22;5198;52.382;9.020;2023-08-01T11:47:57;20.90;99.90
10306;DHT22;5198;52.382;9.020;2023-08-01T11:52:01;21.00;99.90
10306;DHT22;5198;52.382;9.020;2023-08-01T11:56:04;20.80;99.90
10306;DHT22;5198;52.382;9.020;2023-08-01T12:00:08;20.40;99.90
10306;DHT22;5198;52.382;9.020;2023-08-01T12:04:11;20.10;99.90
10306;DHT22;5198;52.382;9.020;2023-08-01T12:08:16;19.80;99.90
10306;DHT22;5198;52.382;9.020;2023-08-01T12:12:19;19.60;99.90
10306;DHT22;5198;52.382;9.020;2023-08-01T12:16:22;19.40;99.90
10306;DHT22;5198;52.382;9.020;2023-08-01T12:20:25;19.30;99.90
10306;DHT22;5198;52.382;9.020;2023-08-01T12:24:29;19.10;99.90
10306;DHT22;5198;52.382;9.020;2023-08-01T12:28:32;19.10;99.90
10306;DHT22;5198;52.382;9.020;2023-08-01T12:32:35;19.00;99.90
10306;DHT22;5198;52.382;9.020;2023-08-01T12:36:39;18.90;99.90
10306;DHT22;5198;52.382;9.020;2023-08-01T12:40:44;18.80;99.90
10306;DHT22;5198;52.382;9.020;2023-08-01T12:44:48;18.70;99.90
10306;DHT22;5198;52.382;9.020;2023-08-01T12:48:51;18.60;99.90
10306;DHT22;5198;52.382;9.020;2023-08-01T12:52:54;18.50;99.90
10306;DHT22;5198;52.382;9.020;2023-08-01T12:56:58;18.40;99.90
10306;DHT22;5198;52.382;9.020;2023-08-01T13:01:02;18.30;99.90
10306;DHT22;5198;52.382;9.020;2023-08-01T13:05:05;18.20;99.90
10306;DHT22;5198;52.382;9.020;2023-08-01T13:09:08;18.20;99.90
10306;DHT22;5198;52.382;9.020;2023-08-01T13:13:18;18.20;99.90
10306;DHT22;5198;52.382;9.020;2023-08-01T13:17:20;18.30;99.90
10306;DHT22;5198;52.382;9.020;2023-08-01T13:21:24;18.50;99.90
10306;DHT22;5198;52.382;9.020;2023-08-01T13:25:27;18.80;99.90
10306;DHT22;5198;52.382;9.020;2023-08-01T13:29:31;19.00;99.90
10306;DHT22;5198;52.382;9.020;2023-08-01T13:33:35;19.30;99.90
10306;DHT22;5198;52.382;9.020;2023-08-01T13:37:38;19.50;99.90
10306;DHT22;5198;52.382;9.020;2023-08-01T13:41:40;19.60;99.90
10306;DHT22;5198;52.382;9.020;2023-08-01T13:45:45;19.70;99.90
10306;DHT22;5198;52.382;9.020;2023-08-01T13:49:48;19.70;99.90
10306;DHT22;5198;52.382;9.020;2023-08-01T13:53:51;19.70;99.90
10306;DHT22;5198;52.382;9.020;2023-08-01T13:57:53;19.60;99.90
10306;DHT22;5198;52.382;9.020;2023-08-01T14:01:58;19.70;99.90
10306;DHT22;5198;52.382;9.020;2023-08-01T14:06:04;19.80;99.90
10306;DHT22;5198;52.382;9.020;2023-08-01T14:10:07;20.00;99.90
10306;DHT22;5198;52.382;9.020;2023-08-01T14:14:11;20.20;99.90
10306;DHT22;5198;52.382;9.020;2023-08-01T14:18:17;20.30;99.90
10306;DHT22;5198;52.382;9.020;2023-08-01T14:22:20;20.50;99.90
10306;DHT22;5198;52.382;9.020;2023-08-01T14:26:23;20.70;99.90
10306;DHT22;5198;52.382;9.020;2023-08-01T14:30:39;20.80;99.90
10306;DHT22;5198;52.382;9.020;2023-08-01T14:34:44;20.90;99.90
10306;DHT22;5198;52.382;9.020;2023-08-01T14:38:46;21.00;99.90
10306;DHT22;5198;52.382;9.020;2023-08-01T14:42:59;21.10;99.90
10306;DHT22;5198;52.382;9.020;2023-08-01T14:47:02;21.20;99.90
10306;DHT22;5198;52.382;9.020;2023-08-01T14:51:07;21.30;99.90
10306;DHT22;5198;52.382;9.020;2023-08-01T14:55:10;21.20;99.90
10306;DHT22;5198;52.382;9.020;2023-08-01T14:59:13;21.20;99.90
10306;DHT22;5198;52.382;9.020;2023-08-01T15:03:16;21.20;99.90
10306;DHT22;5198;52.382;9.020;2023-08-01T15:07:21;21.20;99.90
10306;DHT22;5198;52.382;9.020;2023-08-01T15:11:24;21.10;99.90
10306;DHT22;5198;52.382;9.020;2023-08-01T15:15:34;21.10;99.90
10306;DHT22;5198;52.382;9.020;2023-08-01T15:19:37;21.20;99.90
10306;DHT22;5198;52.382;9.020;2023-08-01T15:23:42;21.20;99.90
10306;DHT22;5198;52.382;9.020;2023-08-01T15:27:45;21.30;99.90
10306;DHT22;5198;52.382;9.020;2023-08-01T15:31:49;21.30;99.90
10306;DHT22;5198;52.382;9.020;2023-08-01T15:35:53;21.40;99.90
10306;DHT22;5198;52.382;9.020;2023-08-01T15:40:03;21.50;99.90
10306;DHT22;5198;52.382;9.020;2023-08-01T15:44:07;21.60;99.90
10306;DHT22;5198;52.382;9.020;2023-08-01T15:48:10;21.70;99.90
10306;DHT22;5198;52.382;9.020;2023-08-01T15:52:13;21.70;99.90
10306;DHT22;5198;52.382;9.020;2023-08-01T15:56:17;21.70;99.90
10306;DHT22;5198;52.382;9.020;2023-08-01T16:00:20;21.70;99.90
10306;DHT22;5198;52.382;9.020;2023-08-01T16:04:23;21.80;99.90
10306;DHT22;5198;52.382;9.020;2023-08-01T16:08:26;21.80;99.90
10306;DHT22;5198;52.382;9.020;2023-08-01T16:12:32;21.70;99.90
10306;DHT22;5198;52.382;9.020;2023-08-01T16:16:35;21.70;99.90
10306;DHT22;5198;52.382;9.020;2023-08-01T16:20:38;21.70;99.90
10306;DHT22;5198;52.382;9.020;2023-08-01T16:24:41;21.90;99.90
10306;DHT22;5198;52.382;9.020;2023-08-01T16:28:45;22.00;99.90
10306;DHT22;5198;52.382;9.020;2023-08-01T16:32:48;22.00;99.90
10306;DHT22;5198;52.382;9.020;2023-08-01T16:36:52;22.00;99.90
10306;DHT22;5198;52.382;9.020;2023-08-01T16:40:56;21.80;99.90
10306;DHT22;5198;52.382;9.020;2023-08-01T16:45:00;21.70;99.90
10306;DHT22;5198;52.382;9.020;2023-08-01T16:49:05;21.50;99.90
10306;DHT22;5198;52.382;9.020;2023-08-01T16:53:24;21.40;99.90
10306;DHT22;5198;52.382;9.020;2023-08-01T16:57:27;21.30;99.90
10306;DHT22;5198;52.382;9.020;2023-08-01T17:01:31;21.20;99.90
10306;DHT22;5198;52.382;9.020;2023-08-01T17:05:34;21.10;99.90
10306;DHT22;5198;52.382;9.020;2023-08-01T17:09:37;21.10;99.90
10306;DHT22;5198;52.382;9.020;2023-08-01T17:13:40;21.10;99.90
10306;DHT22;5198;52.382;9.020;2023-08-01T17:17:44;21.00;99.90
10306;DHT22;5198;52.382;9.020;2023-08-01T17:21:48;21.00;99.90
10306;DHT22;5198;52.382;9.020;2023-08-01T17:25:52;20.90;99.90
10306;DHT22;5198;52.382;9.020;2023-08-01T17:29:55;20.90;99.90
10306;DHT22;5198;52.382;9.020;2023-08-01T17:33:59;20.80;99.90
10306;DHT22;5198;52.382;9.020;2023-08-01T17:38:02;20.70;99.90
10306;DHT22;5198;52.382;9.020;2023-08-01T17:42:05;20.60;99.90
10306;DHT22;5198;52.382;9.020;2023-08-01T17:46:08;20.60;99.90
10306;DHT22;5198;52.382;9.020;2023-08-01T17:50:13;20.50;99.90
10306;DHT22;5198;52.382;9.020;2023-08-01T17:54:16;20.30;99.90
10306;DHT22;5198;52.382;9.020;2023-08-01T17:58:18;20.10;99.90
10306;DHT22;5198;52.382;9.020;2023-08-01T18:02:23;20.00;99.90
10306;DHT22;5198;52.382;9.020;2023-08-01T18:06:30;19.90;99.90
10306;DHT22;5198;52.382;9.020;2023-08-01T18:10:34;19.80;99.90
10306;DHT22;5198;52.382;9.020;2023-08-01T18:14:37;19.70;99.90
10306;DHT22;5198;52.382;9.020;2023-08-01T18:18:40;19.60;99.90
10306;DHT22;5198;52.382;9.020;2023-08-01T18:22:44;19.60;99.90
10306;DHT22;5198;52.382;9.020;2023-08-01T18:26:47;19.50;99.90
10306;DHT22;5198;52.382;9.020;2023-08-01T18:30:50;19.40;99.90
10306;DHT22;5198;52.382;9.020;2023-08-01T18:34:53;19.30;99.90
10306;DHT22;5198;52.382;9.020;2023-08-01T18:39:06;19.30;99.90
10306;DHT22;5198;52.382;9.020;2023-08-01T18:43:09;19.20;99.90
10306;DHT22;5198;52.382;9.020;2023-08-01T18:47:12;19.10;99.90
10306;DHT22;5198;52.382;9.020;2023-08-01T18:51:16;19.00;99.90
10306;DHT22;5198;52.382;9.020;2023-08-01T18:55:20;18.90;99.90
10306;DHT22;5198;52.382;9.020;2023-08-01T18:59:25;18.80;99.90
10306;DHT22;5198;52.382;9.020;2023-08-01T19:03:28;18.70;99.90
10306;DHT22;5198;52.382;9.020;2023-08-01T19:07:42;18.60;99.90
10306;DHT22;5198;52.382;9.020;2023-08-01T19:11:49;18.50;99.90
10306;DHT22;5198;52.382;9.020;2023-08-01T19:15:52;18.40;99.90
10306;DHT22;5198;52.382;9.020;2023-08-01T19:19:55;18.40;99.90
10306;DHT22;5198;52.382;9.020;2023-08-01T19:24:00;18.30;99.90
10306;DHT22;5198;52.382;9.020;2023-08-01T19:28:05;18.20;99.90
10306;DHT22;5198;52.382;9.020;2023-08-01T19:32:08;18.20;99.90
10306;DHT22;5198;52.382;9.020;2023-08-01T19:36:11;18.10;99.90
10306;DHT22;5198;52.382;9.020;2023-08-01T19:40:14;18.10;99.90
10306;DHT22;5198;52.382;9.020;2023-08-01T19:48:26;18.00;99.90
10306;DHT22;5198;52.382;9.020;2023-08-01T19:52:29;18.00;99.90
10306;DHT22;5198;52.382;9.020;2023-08-01T19:56:32;18.00;99.90
10306;DHT22;5198;52.382;9.020;2023-08-01T20:00:35;17.90;99.90
10306;DHT22;5198;52.382;9.020;2023-08-01T20:04:40;17.90;99.90
10306;DHT22;5198;52.382;9.020;2023-08-01T20:08:43;17.90;99.90
10306;DHT22;5198;52.382;9.020;2023-08-01T20:12:46;17.80;99.90
10306;DHT22;5198;52.382;9.020;2023-08-01T20:16:49;17.80;99.90
10306;DHT22;5198;52.382;9.020;2023-08-01T20:20:56;17.80;99.90
10306;DHT22;5198;52.382;9.020;2023-08-01T20:29:08;17.70;99.90
10306;DHT22;5198;52.382;9.020;2023-08-01T20:33:11;17.60;99.90
10306;DHT22;5198;52.382;9.020;2023-08-01T20:37:16;17.60;99.90
10306;DHT22;5198;52.382;9.020;2023-08-01T20:41:19;17.60;99.90
10306;DHT22;5198;52.382;9.020;2023-08-01T20:45:22;17.60;99.90
10306;DHT22;5198;52.382;9.020;2023-08-01T20:49:25;17.50;99.90
10306;DHT22;5198;52.382;9.020;2023-08-01T20:53:29;17.50;99.90
10306;DHT22;5198;52.382;9.020;2023-08-01T20:57:32;17.50;99.90
10306;DHT22;5198;52.382;9.020;2023-08-01T21:01:35;17.50;99.90
10306;DHT22;5198;52.382;9.020;2023-08-01T21:05:38;17.50;99.90
10306;DHT22;5198;52.382;9.020;2023-08-01T21:09:42;17.50;99.90
10306;DHT22;5198;52.382;9.020;2023-08-01T21:13:45;17.40;99.90
10306;DHT22;5198;52.382;9.020;2023-08-01T21:17:49;17.40;99.90
10306;DHT22;5198;52.382;9.020;2023-08-01T21:21:52;17.40;99.90
10306;DHT22;5198;52.382;9.020;2023-08-01T21:25:56;17.40;99.90
10306;DHT22;5198;52.382;9.020;2023-08-01T21:29:59;17.40;99.90
10306;DHT22;5198;52.382;9.020;2023-08-01T21:34:02;17.40;99.90
10306;DHT22;5198;52.382;9.020;2023-08-01T21:38:05;17.40;99.90
10306;DHT22;5198;52.382;9.020;2023-08-01T21:42:10;17.30;99.90
10306;DHT22;5198;52.382;9.020;2023-08-01T21:46:14;17.30;99.90
10306;DHT22;5198;52.382;9.020;2023-08-01T21:50:17;17.30;99.90
10306;DHT22;5198;52.382;9.020;2023-08-01T21:54:20;17.30;99.90
10306;DHT22;5198;52.382;9.020;2023-08-01T21:58:25;17.30;99.90
10306;DHT22;5198;52.382;9.020;2023-08-01T22:02:28;17.30;99.90
10306;DHT22;5198;52.382;9.020;2023-08-01T22:06:31;17.30;99.90
10306;DHT22;5198;52.382;9.020;2023-08-01T22:10:34;17.30;99.90
10306;DHT22;5198;52.382;9.020;2023-08-01T22:14:45;17.30;99.90
10306;DHT22;5198;52.382;9.020;2023-08-01T22:18:49;17.20;99.90
10306;DHT22;5198;52.382;9.020;2023-08-01T22:22:52;17.20;99.90
10306;DHT22;5198;52.382;9.020;2023-08-01T22:26:56;17.30;99.90
10306;DHT22;5198;52.382;9.020;2023-08-01T22:31:01;17.20;99.90
10306;DHT22;5198;52.382;9.020;2023-08-01T22:35:04;17.20;99.90
10306;DHT22;5198;52.382;9.020;2023-08-01T22:39:07;17.30;99.90
10306;DHT22;5198;52.382;9.020;2023-08-01T22:43:10;17.20;99.90
10306;DHT22;5198;52.382;9.020;2023-08-01T22:47:18;17.30;99.90
10306;DHT22;5198;52.382;9.020;2023-08-01T22:51:20;17.20;99.90
10306;DHT22;5198;52.382;9.020;2023-08-01T22:55:24;17.20;99.90
10306;DHT22;5198;52.382;9.020;2023-08-01T22:59:27;17.20;99.90
10306;DHT22;5198;52.382;9.020;2023-08-01T23:03:32;17.20;99.90
10306;DHT22;5198;52.382;9.020;2023-08-01T23:07:35;17.20;99.90
10306;DHT22;5198;52.382;9.020;2023-08-01T23:11:38;17.20;99.90
10306;DHT22;5198;52.382;9.020;2023-08-01T23:15:41;17.20;99.90
10306;DHT22;5198;52.382;9.020;2023-08-01T23:19:46;17.20;99.90
10306;DHT22;5198;52.382;9.020;2023-08-01T23:23:49;17.20;99.90
10306;DHT22;5198;52.382;9.020;2023-08-01T23:27:51;17.10;99.90
10306;DHT22;5198;52.382;9.020;2023-08-01T23:31:54;17.10;99.90
10306;DHT22;5198;52.382;9.020;2023-08-01T23:35:59;17.10;99.90
10306;DHT22;5198;52.382;9.020;2023-08-01T23:40:02;17.10;99.90
10306;DHT22;5198;52.382;9.020;2023-08-01T23:44:05;17.10;99.90
10306;DHT22;5198;52.382;9.020;2023-08-01T23:48:08;17.10;99.90
10306;DHT22;5198;52.382;9.020;2023-08-01T23:52:12;17.10;99.90
10306;DHT22;5198;52.382;9.020;2023-08-01T23:56:15;17.10;99.90
